Time;durP1;ratioP1;P1;durP2;ratioP2;P2;SDS_P1;SDS_P2;PMS_P1;PMS_P2;Temp;Humidity;BMP_temperature;BMP_pressure;BME280_temperature;BME280_humidity;BME280_pressure;Samples;Min_cycle;Max_cycle;Signal;HPM_P1;HPM_P2
2021/04/19 00:00:15;;;;;;;19.87;12.07;;;4.30;99.90;;;;;;5048328;28;20447;-68
2021/04/19 00:02:43;;;;;;;19.60;11.77;;;4.30;99.90;;;;;;5048673;28;20469;-68
2021/04/19 00:05:14;;;;;;;20.10;11.60;;;4.30;99.90;;;;;;5048921;28;20431;-68
2021/04/19 00:07:40;;;;;;;17.87;12.20;;;4.30;99.90;;;;;;5048831;28;20862;-68
2021/04/19 00:10:08;;;;;;;16.83;11.90;;;4.30;99.90;;;;;;5048474;28;20436;-68
2021/04/19 00:12:38;;;;;;;18.07;11.47;;;4.20;99.90;;;;;;5048445;28;20467;-67
2021/04/19 00:15:08;;;;;;;20.00;11.57;;;4.10;99.90;;;;;;5042263;28;20472;-69
2021/04/19 00:17:35;;;;;;;17.63;11.60;;;4.20;99.90;;;;;;5028693;28;20495;-68
2021/04/19 00:20:06;;;;;;;15.37;9.57;;;4.20;99.90;;;;;;5028549;28;20449;-68
2021/04/19 00:22:33;;;;;;;15.33;10.67;;;4.10;99.90;;;;;;5028584;28;20459;-68
2021/04/19 00:25:00;;;;;;;18.07;11.30;;;4.00;99.90;;;;;;5028417;28;20468;-68
2021/04/19 00:27:26;;;;;;;16.10;10.13;;;3.90;99.90;;;;;;5028538;28;20535;-66
2021/04/19 00:29:53;;;;;;;20.77;12.07;;;3.80;99.90;;;;;;5028237;28;20546;-66
2021/04/19 00:32:20;;;;;;;16.87;10.80;;;3.70;99.90;;;;;;5028253;28;20444;-66
2021/04/19 00:34:47;;;;;;;17.90;11.60;;;3.60;99.90;;;;;;5045721;28;20502;-65
2021/04/19 00:37:15;;;;;;;20.20;11.47;;;3.60;99.90;;;;;;5047946;28;20433;-65
2021/04/19 00:39:42;;;;;;;18.37;11.37;;;3.60;99.90;;;;;;5047648;28;20526;-65
2021/04/19 00:42:10;;;;;;;18.97;11.73;;;3.50;99.90;;;;;;5047753;28;20423;-66
2021/04/19 00:44:37;;;;;;;23.17;12.37;;;3.50;99.90;;;;;;5045984;28;20427;-66
2021/04/19 00:47:04;;;;;;;16.63;10.70;;;3.40;99.90;;;;;;5042123;28;20462;-66
2021/04/19 00:49:31;;;;;;;17.33;11.47;;;3.30;99.90;;;;;;5048026;28;20427;-65
2021/04/19 00:51:58;;;;;;;18.40;12.40;;;3.30;99.90;;;;;;5047833;28;20450;-66
2021/04/19 00:54:26;;;;;;;21.43;11.80;;;3.30;99.90;;;;;;5048220;28;20449;-66
2021/04/19 00:56:54;;;;;;;14.43;10.50;;;3.20;99.90;;;;;;5047992;28;20423;-66
2021/04/19 00:59:21;;;;;;;18.53;11.77;;;3.20;99.90;;;;;;5047867;28;20423;-66
2021/04/19 01:01:48;;;;;;;15.97;10.47;;;3.10;99.90;;;;;;5047783;28;20450;-65
2021/04/19 01:04:15;;;;;;;18.60;11.50;;;3.10;99.90;;;;;;5047772;28;20462;-66
2021/04/19 01:06:41;;;;;;;18.33;11.83;;;3.00;99.90;;;;;;5047732;27;20423;-66
2021/04/19 01:09:09;;;;;;;25.90;11.60;;;3.00;99.90;;;;;;5047731;28;20439;-66
2021/04/19 01:11:36;;;;;;;16.60;11.27;;;3.00;99.90;;;;;;5047754;28;20439;-66
2021/04/19 01:14:03;;;;;;;21.00;10.60;;;2.90;99.90;;;;;;5047713;28;20457;-66
2021/04/19 01:16:30;;;;;;;19.50;11.07;;;2.80;99.90;;;;;;5047349;28;20481;-66
2021/04/19 01:18:57;;;;;;;17.30;11.23;;;2.70;99.90;;;;;;5047461;28;20470;-65
2021/04/19 01:21:25;;;;;;;17.83;12.67;;;2.70;99.90;;;;;;5047953;28;20428;-65
2021/04/19 01:23:51;;;;;;;17.73;12.40;;;2.70;99.90;;;;;;5047550;28;20530;-66
2021/04/19 01:26:18;;;;;;;21.03;12.87;;;2.60;99.90;;;;;;5047946;28;20450;-65
2021/04/19 01:28:45;;;;;;;20.67;12.97;;;2.60;99.90;;;;;;5050583;28;20435;-66
2021/04/19 01:31:11;;;;;;;19.93;12.20;;;2.60;99.90;;;;;;5051015;28;20442;-66
2021/04/19 01:33:38;;;;;;;27.50;14.07;;;2.50;99.90;;;;;;5050814;28;20466;-66
2021/04/19 01:36:05;;;;;;;21.27;13.20;;;2.50;99.90;;;;;;5051172;28;20565;-66
2021/04/19 01:38:33;;;;;;;20.30;12.93;;;2.50;99.90;;;;;;5051096;27;20453;-66
2021/04/19 01:41:00;;;;;;;19.83;13.07;;;2.60;99.90;;;;;;5051018;28;20769;-66
2021/04/19 01:43:27;;;;;;;23.17;11.50;;;2.70;99.90;;;;;;5050877;28;20442;-66
2021/04/19 01:45:54;;;;;;;21.43;12.83;;;2.70;99.90;;;;;;5050562;28;20439;-66
2021/04/19 01:48:22;;;;;;;19.43;12.87;;;2.70;99.90;;;;;;5050736;28;20990;-66
2021/04/19 01:50:50;;;;;;;28.70;13.30;;;2.70;99.90;;;;;;5050804;27;20427;-66
2021/04/19 01:53:17;;;;;;;20.07;12.50;;;2.70;99.90;;;;;;5050881;28;20462;-66
2021/04/19 01:55:47;;;;;;;23.83;14.50;;;2.70;99.90;;;;;;5050595;28;20479;-66
2021/04/19 01:58:16;;;;;;;24.90;14.60;;;2.70;99.90;;;;;;5050790;28;20443;-66
2021/04/19 02:00:48;;;;;;;24.70;13.40;;;2.70;99.90;;;;;;5049947;28;20498;-66
2021/04/19 02:03:29;;;;;;;23.00;13.33;;;2.80;99.90;;;;;;5050607;28;20450;-65
2021/04/19 02:06:02;;;;;;;22.97;12.93;;;2.80;99.90;;;;;;5050733;27;20534;-66
2021/04/19 02:08:34;;;;;;;16.87;11.27;;;2.80;99.90;;;;;;5050609;28;20423;-66
2021/04/19 02:11:14;;;;;;;21.87;12.67;;;2.90;99.90;;;;;;5050652;28;20459;-66
2021/04/19 02:13:44;;;;;;;21.07;11.90;;;2.80;99.90;;;;;;5050526;28;20478;-66
2021/04/19 02:16:26;;;;;;;21.90;13.77;;;2.80;99.90;;;;;;5035125;28;20487;-66
2021/04/19 02:19:02;;;;;;;17.27;12.23;;;2.90;99.90;;;;;;5030417;28;20443;-66
2021/04/19 02:21:37;;;;;;;21.07;11.97;;;2.90;99.90;;;;;;5030781;28;20534;-66
2021/04/19 02:24:10;;;;;;;23.80;12.93;;;3.00;99.90;;;;;;5030368;28;20532;-66
2021/04/19 02:26:43;;;;;;;24.77;12.70;;;3.00;99.90;;;;;;5030440;28;20424;-66
2021/04/19 02:29:14;;;;;;;21.43;13.17;;;2.90;99.90;;;;;;5030105;28;20434;-66
2021/04/19 02:31:49;;;;;;;24.27;14.33;;;3.00;99.90;;;;;;5030044;28;20539;-65
2021/04/19 02:34:19;;;;;;;25.97;14.60;;;2.90;99.90;;;;;;5030173;28;20963;-66
2021/04/19 02:36:49;;;;;;;22.27;14.00;;;2.90;99.90;;;;;;5030330;28;20471;-68
2021/04/19 02:39:17;;;;;;;24.00;12.83;;;2.90;99.90;;;;;;5030011;28;20464;-65
2021/04/19 02:41:49;;;;;;;21.03;12.83;;;2.80;99.90;;;;;;5030081;28;20527;-65
2021/04/19 02:44:17;;;;;;;23.70;12.13;;;2.70;99.90;;;;;;5030041;28;20527;-66
2021/04/19 02:46:44;;;;;;;21.93;14.77;;;2.70;99.90;;;;;;5029613;28;20932;-66
2021/04/19 02:49:11;;;;;;;20.33;12.77;;;2.60;99.90;;;;;;5030038;28;20446;-66
2021/04/19 02:51:41;;;;;;;24.00;13.40;;;2.60;99.90;;;;;;5029800;28;20516;-66
2021/04/19 02:54:10;;;;;;;23.20;14.53;;;2.60;99.90;;;;;;5030035;28;20464;-66
2021/04/19 02:56:38;;;;;;;24.63;14.67;;;2.60;99.90;;;;;;5029855;28;20476;-66
2021/04/19 02:59:08;;;;;;;22.83;14.40;;;2.50;99.90;;;;;;5029521;28;20428;-66
2021/04/19 03:01:39;;;;;;;25.77;14.73;;;2.40;99.90;;;;;;5029615;28;20483;-66
2021/04/19 03:04:08;;;;;;;29.57;14.90;;;2.40;99.90;;;;;;5029720;28;20463;-66
2021/04/19 03:06:39;;;;;;;23.40;14.03;;;2.40;99.90;;;;;;5030016;28;20435;-66
2021/04/19 03:09:06;;;;;;;23.53;14.70;;;2.50;99.90;;;;;;5029748;28;20424;-66
2021/04/19 03:11:37;;;;;;;23.50;14.23;;;2.40;99.90;;;;;;5029528;28;20428;-65
2021/04/19 03:14:09;;;;;;;22.63;14.83;;;2.40;99.90;;;;;;5029871;28;20850;-65
2021/04/19 03:16:39;;;;;;;20.80;13.03;;;2.40;99.90;;;;;;5029366;28;20471;-65
2021/04/19 03:19:09;;;;;;;24.47;13.93;;;2.40;99.90;;;;;;5029582;28;20439;-66
2021/04/19 03:21:39;;;;;;;22.40;14.20;;;2.40;99.90;;;;;;5029451;28;20792;-66
2021/04/19 03:24:08;;;;;;;29.33;16.17;;;2.30;99.90;;;;;;5029861;28;20452;-66
2021/04/19 03:26:36;;;;;;;25.67;14.27;;;2.30;99.90;;;;;;5029660;28;20476;-65
2021/04/19 03:29:04;;;;;;;25.60;15.23;;;2.20;99.90;;;;;;5029141;28;20435;-65
2021/04/19 03:31:40;;;;;;;21.03;13.10;;;2.20;99.90;;;;;;5040053;28;20487;-66
2021/04/19 03:34:12;;;;;;;21.00;14.80;;;2.20;99.90;;;;;;5049087;28;20849;-66
2021/04/19 03:36:40;;;;;;;23.37;14.27;;;2.20;99.90;;;;;;5049100;28;20597;-65
2021/04/19 03:39:09;;;;;;;23.30;13.20;;;2.10;99.90;;;;;;5048987;28;20461;-66
2021/04/19 03:41:40;;;;;;;20.00;11.93;;;2.10;99.90;;;;;;5049169;28;20830;-66
2021/04/19 03:44:10;;;;;;;24.50;13.60;;;2.20;99.90;;;;;;5049052;28;20453;-66
2021/04/19 03:46:40;;;;;;;23.23;13.60;;;2.10;99.90;;;;;;5048912;28;20435;-66
2021/04/19 03:49:11;;;;;;;26.20;15.07;;;2.10;99.90;;;;;;5048620;28;20458;-65
2021/04/19 03:51:39;;;;;;;27.73;14.23;;;2.00;99.90;;;;;;5048459;27;20919;-66
2021/04/19 03:54:07;;;;;;;21.47;12.60;;;2.10;99.90;;;;;;5048870;28;20451;-66
2021/04/19 03:56:36;;;;;;;25.20;12.10;;;2.10;99.90;;;;;;5049010;28;20876;-66
2021/04/19 03:59:05;;;;;;;20.10;12.87;;;2.10;99.90;;;;;;5048676;28;20731;-66
2021/04/19 04:01:35;;;;;;;27.10;14.60;;;2.10;99.90;;;;;;5048481;28;20434;-65
2021/04/19 04:04:03;;;;;;;17.10;13.07;;;2.00;99.90;;;;;;5048853;27;20451;-66
2021/04/19 04:06:30;;;;;;;25.23;14.60;;;2.00;99.90;;;;;;5049134;27;20479;-66
2021/04/19 04:08:58;;;;;;;24.10;13.57;;;2.00;99.90;;;;;;5048568;28;20513;-66
2021/04/19 04:11:26;;;;;;;23.20;13.60;;;2.10;99.90;;;;;;5049129;28;20971;-65
2021/04/19 04:13:53;;;;;;;21.40;12.80;;;2.10;99.90;;;;;;5048541;28;20527;-66
2021/04/19 04:16:19;;;;;;;19.60;13.53;;;2.00;99.90;;;;;;5047957;27;20475;-66
2021/04/19 04:18:46;;;;;;;22.97;15.53;;;2.00;99.90;;;;;;5048684;28;20472;-66
2021/04/19 04:21:15;;;;;;;24.20;13.23;;;2.00;99.90;;;;;;5048652;28;20908;-65
2021/04/19 04:23:43;;;;;;;20.40;12.40;;;2.10;99.90;;;;;;5048482;28;20485;-66
2021/04/19 04:26:10;;;;;;;21.50;13.33;;;2.10;99.90;;;;;;5048376;28;20442;-66
2021/04/19 04:28:37;;;;;;;25.87;15.13;;;2.10;99.90;;;;;;5048755;28;20483;-66
2021/04/19 04:31:04;;;;;;;20.33;13.83;;;2.20;99.90;;;;;;5048403;28;20434;-66
2021/04/19 04:33:30;;;;;;;28.60;13.80;;;2.10;99.90;;;;;;5048117;27;20494;-66
2021/04/19 04:35:57;;;;;;;22.17;14.10;;;2.10;99.90;;;;;;5048189;28;20476;-66
2021/04/19 04:38:25;;;;;;;24.20;16.63;;;2.20;99.90;;;;;;5048568;28;20777;-66
2021/04/19 04:40:51;;;;;;;23.63;13.63;;;2.20;99.90;;;;;;5047796;28;20447;-65
2021/04/19 04:43:22;;;;;;;19.33;13.33;;;2.20;99.90;;;;;;5048089;27;20517;-66
2021/04/19 04:45:54;;;;;;;23.07;15.63;;;2.20;99.90;;;;;;5036020;28;20992;-66
2021/04/19 04:48:25;;;;;;;25.20;14.50;;;2.20;99.90;;;;;;5028354;28;20516;-66
2021/04/19 04:50:57;;;;;;;26.33;14.33;;;2.10;99.90;;;;;;5027940;28;20862;-66
2021/04/19 04:53:27;;;;;;;24.40;14.63;;;2.10;99.90;;;;;;5028149;28;21051;-66
2021/04/19 04:55:55;;;;;;;21.47;15.20;;;2.10;99.90;;;;;;5028299;28;20894;-66
2021/04/19 04:58:23;;;;;;;20.20;13.73;;;2.20;99.90;;;;;;5028361;28;20763;-65
2021/04/19 05:00:51;;;;;;;24.97;14.80;;;2.30;99.90;;;;;;5027766;28;20804;-66
2021/04/19 05:03:19;;;;;;;23.80;13.40;;;2.20;99.90;;;;;;5026929;28;20990;-66
2021/04/19 05:05:47;;;;;;;20.80;11.97;;;2.20;99.90;;;;;;5027969;28;20438;-66
2021/04/19 05:08:14;;;;;;;22.60;14.40;;;2.30;99.90;;;;;;5027966;28;20443;-66
2021/04/19 05:10:43;;;;;;;21.40;13.07;;;2.30;99.90;;;;;;5027867;28;20948;-66
2021/04/19 05:13:13;;;;;;;21.80;12.67;;;2.30;99.90;;;;;;5043771;28;20458;-66
2021/04/19 05:15:43;;;;;;;18.60;12.43;;;2.30;99.90;;;;;;5042989;28;20975;-66
2021/04/19 05:18:14;;;;;;;29.00;14.53;;;2.30;99.90;;;;;;5047628;28;20430;-66
2021/04/19 05:20:40;;;;;;;24.20;14.40;;;2.40;99.90;;;;;;5044787;28;20435;-66
2021/04/19 05:23:07;;;;;;;22.67;15.00;;;2.50;99.90;;;;;;5047348;28;20849;-66
2021/04/19 05:25:34;;;;;;;18.60;12.23;;;2.50;99.90;;;;;;5047554;28;20441;-66
2021/04/19 05:28:02;;;;;;;25.67;14.60;;;2.50;99.90;;;;;;5047165;28;20427;-66
2021/04/19 05:30:30;;;;;;;20.53;13.30;;;2.40;99.90;;;;;;5047260;28;20483;-65
2021/04/19 05:32:58;;;;;;;25.77;14.33;;;2.40;99.90;;;;;;5047149;28;20471;-66
2021/04/19 05:35:27;;;;;;;22.20;15.07;;;2.40;99.90;;;;;;5047242;28;20467;-66
2021/04/19 05:37:54;;;;;;;26.80;14.80;;;2.40;99.90;;;;;;5047410;28;20449;-66
2021/04/19 05:40:22;;;;;;;21.10;15.20;;;2.40;99.90;;;;;;5044857;28;20507;-66
2021/04/19 05:42:49;;;;;;;25.97;15.70;;;2.40;99.90;;;;;;5046373;27;20968;-66
2021/04/19 05:45:18;;;;;;;27.23;14.27;;;2.50;99.90;;;;;;5044373;28;20439;-65
2021/04/19 05:47:47;;;;;;;23.33;16.30;;;2.60;99.90;;;;;;5043715;28;20438;-66
2021/04/19 05:50:15;;;;;;;27.03;16.80;;;2.70;99.90;;;;;;5046821;27;20447;-66
2021/04/19 05:52:42;;;;;;;24.37;15.47;;;2.70;99.90;;;;;;5046713;28;20449;-66
2021/04/19 05:55:11;;;;;;;25.67;14.60;;;2.80;99.90;;;;;;5043968;28;20471;-66
2021/04/19 05:57:45;;;;;;;21.70;13.80;;;2.80;99.90;;;;;;5046823;28;20483;-66
2021/04/19 06:00:20;;;;;;;18.97;12.90;;;2.80;99.90;;;;;;5044747;28;20448;-66
2021/04/19 06:02:54;;;;;;;26.97;14.33;;;2.80;99.90;;;;;;5046796;28;20447;-65
2021/04/19 06:05:25;;;;;;;23.60;13.67;;;2.70;99.90;;;;;;5047243;28;20562;-66
2021/04/19 06:08:00;;;;;;;21.27;13.10;;;2.80;99.90;;;;;;5046961;27;20427;-66
2021/04/19 06:10:31;;;;;;;21.20;12.50;;;2.80;99.90;;;;;;5046745;28;20422;-66
2021/04/19 06:13:01;;;;;;;22.30;13.13;;;2.90;99.90;;;;;;5046888;27;20447;-69
2021/04/19 06:15:30;;;;;;;26.63;14.63;;;2.90;99.90;;;;;;5041910;28;20479;-70
2021/04/19 06:17:59;;;;;;;21.80;13.80;;;2.90;99.90;;;;;;5030667;28;20436;-69
2021/04/19 06:20:26;;;;;;;21.43;13.57;;;2.90;99.90;;;;;;5031019;28;20424;-69
2021/04/19 06:22:54;;;;;;;25.27;14.80;;;2.90;99.90;;;;;;5034526;28;20457;-70
2021/04/19 06:25:22;;;;;;;24.73;13.67;;;2.90;99.90;;;;;;5050401;28;20427;-70
2021/04/19 06:27:55;;;;;;;31.17;16.93;;;3.00;99.90;;;;;;5050183;28;20912;-69
2021/04/19 06:30:26;;;;;;;28.33;15.57;;;3.10;99.90;;;;;;5050305;28;20424;-69
2021/04/19 06:32:54;;;;;;;26.10;16.30;;;3.30;99.90;;;;;;5050391;28;20469;-69
2021/04/19 06:35:20;;;;;;;25.77;15.03;;;3.40;99.90;;;;;;5051014;28;20496;-69
2021/04/19 06:37:51;;;;;;;26.90;15.07;;;3.50;99.90;;;;;;5050500;28;20449;-69
2021/04/19 06:40:18;;;;;;;26.23;14.93;;;3.60;99.90;;;;;;5050543;28;20509;-68
2021/04/19 06:42:45;;;;;;;26.10;14.00;;;3.70;99.90;;;;;;5050552;28;21034;-69
2021/04/19 06:45:15;;;;;;;22.37;14.00;;;3.80;99.90;;;;;;5050549;28;20519;-70
2021/04/19 06:47:42;;;;;;;23.70;14.50;;;3.90;99.90;;;;;;5050420;28;20427;-70
2021/04/19 06:50:12;;;;;;;28.13;15.60;;;4.10;99.90;;;;;;5050129;28;20449;-69
2021/04/19 06:52:46;;;;;;;24.70;13.60;;;4.20;99.90;;;;;;5050865;28;20443;-70
2021/04/19 06:55:13;;;;;;;23.00;14.47;;;4.30;99.90;;;;;;5050412;28;21140;-69
2021/04/19 06:57:44;;;;;;;23.27;14.43;;;4.40;99.90;;;;;;5051570;28;20792;-69
2021/04/19 07:00:12;;;;;;;24.27;16.13;;;4.50;99.90;;;;;;5050503;28;20427;-69
2021/04/19 07:02:48;;;;;;;21.23;15.10;;;4.60;99.90;;;;;;5050403;28;20442;-70
2021/04/19 07:05:19;;;;;;;22.27;12.97;;;4.70;99.90;;;;;;5049715;28;20517;-69
2021/04/19 07:07:57;;;;;;;26.27;14.27;;;4.80;99.90;;;;;;5048171;28;20874;-70
2021/04/19 07:10:24;;;;;;;28.17;14.73;;;4.90;99.90;;;;;;5049690;28;20447;-69
2021/04/19 07:12:52;;;;;;;25.20;15.50;;;4.90;99.90;;;;;;5049697;28;20467;-68
2021/04/19 07:15:20;;;;;;;19.73;13.73;;;5.00;99.90;;;;;;5044608;28;20808;-68
2021/04/19 07:17:49;;;;;;;26.30;15.77;;;5.00;99.90;;;;;;5050146;28;20514;-68
2021/04/19 07:20:18;;;;;;;26.73;14.40;;;5.10;99.90;;;;;;5049947;28;20463;-69
2021/04/19 07:22:45;;;;;;;43.53;26.30;;;5.20;99.90;;;;;;5050364;28;20451;-70
2021/04/19 07:25:12;;;;;;;25.77;16.13;;;5.30;99.90;;;;;;5049458;28;20431;-69
2021/04/19 07:27:40;;;;;;;39.00;25.07;;;5.40;99.90;;;;;;5049918;28;20495;-69
2021/04/19 07:30:10;;;;;;;30.23;20.10;;;5.50;99.90;;;;;;5049922;28;20539;-69
2021/04/19 07:32:39;;;;;;;22.50;17.40;;;5.60;99.90;;;;;;5049312;28;20470;-69
2021/04/19 07:35:08;;;;;;;18.87;13.87;;;5.80;99.90;;;;;;5049756;28;20530;-69
2021/04/19 07:37:36;;;;;;;24.53;14.47;;;5.70;99.90;;;;;;5049639;28;20811;-70
2021/04/19 07:40:04;;;;;;;25.93;14.20;;;5.90;99.90;;;;;;5049221;28;20856;-70
2021/04/19 07:42:33;;;;;;;21.40;15.20;;;6.00;99.90;;;;;;5049500;28;20451;-70
2021/04/19 07:44:59;;;;;;;20.17;13.57;;;6.10;99.90;;;;;;5049649;28;20807;-70
2021/04/19 07:47:30;;;;;;;26.40;15.30;;;6.10;99.90;;;;;;5048916;28;20523;-69
2021/04/19 07:50:12;;;;;;;19.63;13.00;;;6.10;99.90;;;;;;5049462;28;20530;-68
2021/04/19 07:52:59;;;;;;;20.30;13.83;;;6.00;99.90;;;;;;5048989;28;20470;-69
2021/04/19 07:55:28;;;;;;;24.23;14.60;;;6.00;99.90;;;;;;5049100;27;20473;-69
2021/04/19 07:57:55;;;;;;;20.67;13.07;;;6.00;99.90;;;;;;5049248;28;20849;-69
2021/04/19 08:00:30;;;;;;;22.23;12.93;;;6.00;99.90;;;;;;5047291;27;20427;-68
2021/04/19 08:03:06;;;;;;;21.10;13.33;;;6.10;99.90;;;;;;5048525;27;20481;-69
2021/04/19 08:05:38;;;;;;;22.03;14.87;;;6.20;99.90;;;;;;5048952;28;20431;-69
2021/04/19 08:08:08;;;;;;;21.57;12.50;;;6.40;99.90;;;;;;5048901;28;20475;-68
2021/04/19 08:10:37;;;;;;;18.10;11.97;;;6.50;99.90;;;;;;5048950;28;20435;-69
2021/04/19 08:13:07;;;;;;;24.40;12.50;;;6.50;99.90;;;;;;5049135;27;20453;-68
2021/04/19 08:15:36;;;;;;;24.67;16.10;;;6.60;99.90;;;;;;5038973;28;20499;-69
2021/04/19 08:18:09;;;;;;;23.80;13.97;;;6.60;99.90;;;;;;5028616;28;20479;-68
2021/04/19 08:20:36;;;;;;;21.17;13.13;;;6.50;99.90;;;;;;5028749;28;20479;-69
2021/04/19 08:23:09;;;;;;;24.03;13.40;;;6.40;99.90;;;;;;5028679;28;20502;-69
2021/04/19 08:25:38;;;;;;;17.03;11.67;;;6.50;99.90;;;;;;5028720;28;20932;-69
2021/04/19 08:28:07;;;;;;;23.07;13.63;;;6.50;99.90;;;;;;5028685;28;20428;-69
2021/04/19 08:30:35;;;;;;;18.17;12.27;;;6.70;99.90;;;;;;5028718;28;20451;-68
2021/04/19 08:33:01;;;;;;;17.53;11.73;;;6.80;99.90;;;;;;5028401;28;20494;-69
2021/04/19 08:35:30;;;;;;;21.37;12.47;;;6.80;99.90;;;;;;5028422;28;20472;-68
2021/04/19 08:37:58;;;;;;;20.40;12.10;;;6.80;99.90;;;;;;5028246;28;20436;-70
2021/04/19 08:40:26;;;;;;;20.30;13.53;;;7.00;99.90;;;;;;5028241;28;20444;-69
2021/04/19 08:42:56;;;;;;;23.50;12.40;;;7.00;99.90;;;;;;5028093;28;20464;-68
2021/04/19 08:45:24;;;;;;;17.80;11.93;;;7.10;99.90;;;;;;5028711;28;20437;-69
2021/04/19 08:47:52;;;;;;;18.93;13.57;;;7.10;99.90;;;;;;5028057;28;20436;-69
2021/04/19 08:50:23;;;;;;;21.80;13.00;;;7.10;99.90;;;;;;5027832;28;20441;-68
2021/04/19 08:52:52;;;;;;;20.03;12.00;;;7.20;99.90;;;;;;5028072;28;20456;-70
2021/04/19 08:55:19;;;;;;;20.53;12.23;;;7.30;99.90;;;;;;5028091;28;20905;-69
2021/04/19 08:57:49;;;;;;;21.83;13.17;;;7.50;99.90;;;;;;5028037;28;20426;-69
2021/04/19 09:00:21;;;;;;;22.43;12.27;;;7.60;99.90;;;;;;5028010;28;20432;-69
2021/04/19 09:02:49;;;;;;;19.10;11.93;;;7.80;99.90;;;;;;5027715;28;20445;-68
2021/04/19 09:05:17;;;;;;;16.47;10.00;;;8.00;99.90;;;;;;5045738;28;20484;-68
2021/04/19 09:07:46;;;;;;;15.33;12.33;;;8.30;99.90;;;;;;5047897;28;20630;-68
2021/04/19 09:10:15;;;;;;;17.23;11.53;;;8.40;99.90;;;;;;5047704;28;20954;-69
2021/04/19 09:12:42;;;;;;;16.93;11.67;;;8.70;99.90;;;;;;5047841;28;20472;-68
2021/04/19 09:15:15;;;;;;;16.57;11.47;;;8.90;99.90;;;;;;5047894;28;20754;-68
2021/04/19 09:17:43;;;;;;;17.53;11.50;;;8.70;99.90;;;;;;5047670;28;20452;-68
2021/04/19 09:20:12;;;;;;;17.83;11.60;;;8.60;99.90;;;;;;5047402;28;20446;-68
2021/04/19 09:22:40;;;;;;;16.07;11.80;;;8.60;99.90;;;;;;5047731;28;20828;-68
2021/04/19 09:25:11;;;;;;;16.40;10.80;;;8.50;99.90;;;;;;5047656;28;20434;-69
2021/04/19 09:27:45;;;;;;;15.33;10.63;;;8.40;99.90;;;;;;5047643;28;20470;-68
2021/04/19 09:30:36;;;;;;;15.10;10.27;;;8.50;99.90;;;;;;5047365;28;20427;-68
2021/04/19 09:33:24;;;;;;;19.77;10.57;;;8.60;99.90;;;;;;5047437;28;20463;-69
2021/04/19 09:35:55;;;;;;;14.80;9.83;;;8.70;99.90;;;;;;5047492;28;20479;-68
2021/04/19 09:38:43;;;;;;;13.47;9.47;;;8.70;99.90;;;;;;5047374;28;20438;-68
2021/04/19 09:41:12;;;;;;;11.30;8.50;;;9.00;99.90;;;;;;5047327;28;20435;-69
2021/04/19 09:43:41;;;;;;;17.30;11.20;;;9.00;99.90;;;;;;5047179;28;20492;-68
2021/04/19 09:46:09;;;;;;;18.60;12.10;;;9.10;99.90;;;;;;5047421;28;20445;-69
2021/04/19 09:48:41;;;;;;;12.77;8.67;;;9.20;99.90;;;;;;5047829;27;20941;-69
2021/04/19 09:51:14;;;;;;;14.13;8.90;;;9.20;99.90;;;;;;5050933;28;20492;-69
2021/04/19 09:53:47;;;;;;;12.10;8.60;;;9.20;99.90;;;;;;5050796;28;20541;-69
2021/04/19 09:56:14;;;;;;;13.03;9.40;;;9.30;99.90;;;;;;5051016;28;20515;-69
2021/04/19 09:58:41;;;;;;;10.67;8.43;;;9.20;99.90;;;;;;5050597;28;20521;-69
2021/04/19 10:01:09;;;;;;;13.83;9.10;;;9.30;99.90;;;;;;5050792;28;20435;-69
2021/04/19 10:03:37;;;;;;;9.87;7.50;;;9.40;99.90;;;;;;5050388;28;20475;-69
2021/04/19 10:06:05;;;;;;;10.40;7.20;;;9.70;99.90;;;;;;5050761;27;20503;-68
2021/04/19 10:08:35;;;;;;;12.37;8.90;;;10.00;99.90;;;;;;5050785;28;20442;-69
2021/04/19 10:11:03;;;;;;;11.90;8.37;;;10.10;99.90;;;;;;5050486;28;20422;-69
2021/04/19 10:13:31;;;;;;;10.67;7.70;;;10.20;99.90;;;;;;5050680;28;20808;-69
2021/04/19 10:16:02;;;;;;;14.93;7.67;;;10.50;99.90;;;;;;5037388;28;20479;-68
2021/04/19 10:18:34;;;;;;;10.87;7.07;;;10.70;99.90;;;;;;5030530;28;20816;-68
2021/04/19 10:21:00;;;;;;;10.80;8.90;;;10.80;99.90;;;;;;5030605;28;20447;-68
2021/04/19 10:23:35;;;;;;;14.13;8.10;;;11.10;99.90;;;;;;5030439;28;20512;-69
2021/04/19 10:26:02;;;;;;;11.43;8.20;;;11.20;99.90;;;;;;5030444;28;20441;-68
2021/04/19 10:28:31;;;;;;;10.00;7.30;;;11.40;99.90;;;;;;5030244;28;20530;-68
2021/04/19 10:31:12;;;;;;;12.53;7.10;;;11.50;99.90;;;;;;5030103;28;20487;-68
2021/04/19 10:33:41;;;;;;;12.10;8.43;;;11.50;99.90;;;;;;5030029;28;20928;-68
2021/04/19 10:36:15;;;;;;;8.87;6.07;;;11.70;99.90;;;;;;5030199;28;20479;-68
2021/04/19 10:38:43;;;;;;;10.00;6.60;;;11.80;99.90;;;;;;5030364;28;20806;-69
2021/04/19 10:41:11;;;;;;;7.37;6.30;;;11.70;99.90;;;;;;5030160;28;20428;-68
2021/04/19 10:43:38;;;;;;;7.67;6.23;;;12.00;99.90;;;;;;5029998;28;20989;-68
2021/04/19 10:46:23;;;;;;;11.23;6.80;;;12.20;99.90;;;;;;5029853;28;20439;-68
2021/04/19 10:48:54;;;;;;;12.27;7.10;;;12.60;99.90;;;;;;5029244;28;20515;-68
2021/04/19 10:51:23;;;;;;;11.07;6.97;;;12.70;99.90;;;;;;5030401;28;20428;-69
2021/04/19 10:53:50;;;;;;;8.70;6.63;;;12.60;99.90;;;;;;5029931;28;20448;-68
2021/04/19 10:56:26;;;;;;;9.57;6.73;;;12.90;99.90;;;;;;5029743;28;20498;-68
2021/04/19 10:58:56;;;;;;;7.63;6.07;;;13.00;99.90;;;;;;5029847;28;20439;-68
2021/04/19 11:01:29;;;;;;;9.73;6.53;;;13.00;98.90;;;;;;5039375;28;20431;-68
2021/04/19 11:03:57;;;;;;;8.67;6.60;;;13.10;99.90;;;;;;5049213;28;20459;-67
2021/04/19 11:06:24;;;;;;;8.80;6.20;;;13.30;99.90;;;;;;5049700;28;20439;-68
2021/04/19 11:08:58;;;;;;;8.70;5.67;;;13.40;99.70;;;;;;5049470;28;20441;-68
2021/04/19 11:11:41;;;;;;;9.03;6.17;;;13.40;98.40;;;;;;5049513;28;20445;-68
2021/04/19 11:14:14;;;;;;;8.07;7.03;;;13.20;98.40;;;;;;5048230;27;20860;-68
2021/04/19 11:17:01;;;;;;;9.37;7.43;;;13.20;99.20;;;;;;5049447;28;20967;-68
2021/04/19 11:19:41;;;;;;;10.57;8.00;;;13.00;97.80;;;;;;5049547;28;20507;-68
2021/04/19 11:22:26;;;;;;;6.37;5.43;;;13.00;98.60;;;;;;5049563;28;20447;-68
2021/04/19 11:24:53;;;;;;;9.37;5.90;;;13.00;97.00;;;;;;5049433;28;20426;-67
2021/04/19 11:27:25;;;;;;;9.47;7.17;;;12.90;96.70;;;;;;5048899;28;20435;-67
2021/04/19 11:29:52;;;;;;;8.60;6.90;;;12.70;97.20;;;;;;5049307;28;20437;-68
2021/04/19 11:32:31;;;;;;;10.13;6.80;;;12.40;96.80;;;;;;5049075;28;20450;-68
2021/04/19 11:34:59;;;;;;;14.20;8.57;;;11.90;97.40;;;;;;5049277;28;20415;-68
2021/04/19 11:37:34;;;;;;;10.60;6.37;;;12.30;97.50;;;;;;5049221;28;20558;-68
2021/04/19 11:40:02;;;;;;;7.53;6.40;;;12.90;98.20;;;;;;5048896;28;20431;-68
2021/04/19 11:42:34;;;;;;;10.23;6.20;;;13.40;98.20;;;;;;5049240;28;20801;-68
2021/04/19 11:45:02;;;;;;;9.83;7.40;;;13.60;96.00;;;;;;5049076;28;20939;-68
2021/04/19 11:47:28;;;;;;;8.23;6.40;;;13.50;96.30;;;;;;5048717;28;20443;-68
2021/04/19 11:49:58;;;;;;;6.20;5.40;;;13.30;95.30;;;;;;5049072;28;20930;-68
2021/04/19 11:52:25;;;;;;;8.83;6.77;;;13.40;94.30;;;;;;5048837;28;20443;-68
2021/04/19 11:54:52;;;;;;;7.00;5.67;;;13.30;94.60;;;;;;5049054;28;20907;-68
2021/04/19 11:57:19;;;;;;;12.20;7.50;;;13.40;94.00;;;;;;5048838;28;20486;-68
2021/04/19 11:59:46;;;;;;;8.60;6.10;;;14.00;95.90;;;;;;5048706;28;20980;-68
2021/04/19 12:02:13;;;;;;;6.63;5.70;;;14.70;96.00;;;;;;5048592;28;20430;-70
2021/04/19 12:04:40;;;;;;;8.40;6.13;;;15.10;95.20;;;;;;5048964;28;20427;-66
2021/04/19 12:07:08;;;;;;;7.00;6.20;;;15.50;92.90;;;;;;5048708;28;20439;-66
2021/04/19 12:09:34;;;;;;;11.10;6.57;;;15.80;92.30;;;;;;5048634;28;20427;-67
2021/04/19 12:12:01;;;;;;;11.27;6.20;;;15.60;94.60;;;;;;5047899;28;20444;-67
2021/04/19 12:14:28;;;;;;;9.43;6.83;;;15.30;92.20;;;;;;5047903;28;20439;-66
2021/04/19 12:16:55;;;;;;;9.20;7.00;;;14.50;91.40;;;;;;5028626;28;20519;-67
2021/04/19 12:19:23;;;;;;;9.83;6.67;;;14.50;92.10;;;;;;5028528;28;20932;-67
2021/04/19 12:21:49;;;;;;;9.40;7.23;;;14.80;92.60;;;;;;5028833;28;21105;-67
2021/04/19 12:24:17;;;;;;;8.47;6.97;;;14.90;92.30;;;;;;5028584;28;21007;-67
2021/04/19 12:26:44;;;;;;;8.73;6.70;;;14.70;92.70;;;;;;5028714;28;20808;-67
2021/04/19 12:29:10;;;;;;;10.43;6.83;;;14.20;92.30;;;;;;5028578;28;20424;-67
2021/04/19 12:31:37;;;;;;;11.77;7.90;;;13.90;92.70;;;;;;5028474;28;20456;-67
2021/04/19 12:34:04;;;;;;;10.17;7.50;;;13.40;94.40;;;;;;5027940;28;20510;-67
2021/04/19 12:36:33;;;;;;;8.30;7.13;;;13.20;93.60;;;;;;5028507;28;20848;-67
2021/04/19 12:39:00;;;;;;;8.80;6.53;;;12.90;94.50;;;;;;5028090;28;20439;-67
2021/04/19 12:41:28;;;;;;;10.00;6.57;;;12.50;93.70;;;;;;5028403;28;20434;-66
2021/04/19 12:43:54;;;;;;;8.83;6.80;;;12.40;96.20;;;;;;5028230;28;20463;-67
2021/04/19 12:46:21;;;;;;;9.00;7.20;;;12.30;94.50;;;;;;5028171;28;20428;-67
2021/04/19 12:48:48;;;;;;;8.43;6.13;;;12.20;95.40;;;;;;5027940;28;20431;-67